AJL weather

Lengpui Airport
Aizawl, Mizoram, India

Public forecast

Using degrees Celsius for public forecast. Weather courtesy of forecast.io.

Current aviation weather report (METAR) for Lengpui Airport

Retrieved 2020/02/22 04:00 UTC (15 minutes ago):

VELP 220400Z 00000KT 5000 HZ BKN200 24/13 Q1021 NOSIG

Closest aviation forecast (TAF) to Lengpui Airport

Forecast is more than 12 hours old.

Closest forecast is Silchar Airport, 67.3 nm (124.7 km) NNE. Retrieved 2020/02/21 12:30 UTC (16 hours ago):

TAF VEKU 210930Z 2112/2124 20004KT 6000 NSC BECMG 2118/21XX 06002KT 5000 BR/HZ NSC